createdAt,value
2023-05-03T00:00:08.781Z,0.70
2023-05-03T00:00:17.408Z,0.70
2023-05-03T00:00:26.783Z,0.70
2023-05-03T00:00:41.061Z,0.93
2023-05-03T00:00:48.225Z,1.08
2023-05-03T00:01:01.066Z,1.10
2023-05-03T00:01:08.853Z,1.10
2023-05-03T00:01:25.196Z,0.78
2023-05-03T00:01:32.337Z,0.70
2023-05-03T00:01:46.592Z,0.73
2023-05-03T00:01:53.860Z,0.80
2023-05-03T00:02:02.424Z,0.88
2023-05-03T00:02:12.472Z,0.90
2023-05-03T00:02:32.511Z,0.80
2023-05-03T00:02:40.578Z,0.70
2023-05-03T00:02:48.162Z,0.77
2023-05-03T00:02:57.559Z,0.70
2023-05-03T00:03:07.847Z,0.67
2023-05-03T00:03:15.014Z,0.68
2023-05-03T00:03:39.687Z,0.70
2023-05-03T00:03:51.900Z,0.68
2023-05-03T00:03:59.099Z,0.64
2023-05-03T00:04:06.613Z,0.66
2023-05-03T00:04:17.086Z,0.70
2023-05-03T00:04:24.646Z,0.70
2023-05-03T00:04:42.300Z,0.60
2023-05-03T00:04:52.530Z,0.60
2023-05-03T00:05:02.338Z,0.60
2023-05-03T00:05:15.035Z,0.70
2023-05-03T00:05:25.104Z,0.96
2023-05-03T00:05:32.524Z,0.99
2023-05-03T00:05:47.992Z,0.72
2023-05-03T00:05:55.378Z,0.70
2023-05-03T00:06:10.615Z,0.80
2023-05-03T00:06:17.876Z,0.76
2023-05-03T00:06:25.160Z,0.70
2023-05-03T00:06:42.296Z,0.66
2023-05-03T00:06:50.392Z,0.60
2023-05-03T00:06:57.646Z,0.70
2023-05-03T00:07:12.198Z,0.60
2023-05-03T00:07:20.492Z,0.70
2023-05-03T00:07:27.717Z,0.70
2023-05-03T00:07:43.668Z,0.70
2023-05-03T00:07:50.916Z,0.63
2023-05-03T00:07:58.878Z,0.70
2023-05-03T00:08:16.149Z,0.70
2023-05-03T00:08:23.347Z,0.80
2023-05-03T00:08:31.144Z,0.86
2023-05-03T00:08:47.649Z,1.00
2023-05-03T00:08:55.113Z,0.94
2023-05-03T00:09:02.761Z,0.80
2023-05-03T00:09:19.475Z,0.90
2023-05-03T00:09:26.586Z,0.90
2023-05-03T00:09:36.893Z,0.88
2023-05-03T00:09:51.279Z,0.80
2023-05-03T00:09:58.491Z,0.80
2023-05-03T00:10:07.157Z,0.73
2023-05-03T00:10:23.849Z,0.80
2023-05-03T00:10:31.863Z,0.80
2023-05-03T00:10:39.065Z,0.73
2023-05-03T00:11:02.741Z,0.80
2023-05-03T00:11:10.457Z,1.02
2023-05-03T00:11:18.969Z,0.90
2023-05-03T00:11:27.046Z,0.90
2023-05-03T00:11:34.581Z,0.60
2023-05-03T00:11:42.222Z,0.60
2023-05-03T00:12:06.125Z,0.60
2023-05-03T00:12:15.711Z,0.70
2023-05-03T00:12:25.765Z,0.76
2023-05-03T00:12:32.936Z,0.77
2023-05-03T00:12:41.208Z,0.80
2023-05-03T00:12:48.410Z,0.72
2023-05-03T00:13:10.051Z,0.80
2023-05-03T00:13:19.701Z,0.86
2023-05-03T00:13:26.905Z,0.90
2023-05-03T00:13:34.353Z,0.90
2023-05-03T00:13:44.091Z,0.90
2023-05-03T00:13:51.626Z,0.80
2023-05-03T00:14:13.118Z,0.80
2023-05-03T00:14:20.536Z,0.80
2023-05-03T00:14:27.938Z,0.80
2023-05-03T00:14:35.206Z,0.76
2023-05-03T00:14:49.532Z,0.80
2023-05-03T00:14:56.691Z,0.80
2023-05-03T00:15:14.919Z,0.80
2023-05-03T00:15:22.056Z,0.79
2023-05-03T00:15:29.379Z,0.87
2023-05-03T00:15:36.536Z,1.07
2023-05-03T00:15:53.960Z,0.94
2023-05-03T00:16:01.212Z,0.70
2023-05-03T00:16:19.301Z,0.80
2023-05-03T00:16:26.461Z,0.80
2023-05-03T00:16:36.280Z,0.88
2023-05-03T00:16:43.578Z,0.73
2023-05-03T00:16:58.038Z,0.87
2023-05-03T00:17:07.386Z,0.87
2023-05-03T00:17:22.257Z,0.80
2023-05-03T00:17:29.779Z,0.80
2023-05-03T00:17:37.591Z,0.78
2023-05-03T00:17:44.870Z,0.73
2023-05-03T00:18:00.164Z,0.80
2023-05-03T00:18:07.411Z,0.80
2023-05-03T00:18:26.551Z,0.94
2023-05-03T00:18:33.778Z,0.97
2023-05-03T00:18:41.255Z,0.93
2023-05-03T00:18:49.319Z,0.93
2023-05-03T00:19:07.793Z,0.80
2023-05-03T00:19:30.393Z,0.79
2023-05-03T00:19:42.700Z,0.79
2023-05-03T00:19:51.213Z,0.91
2023-05-03T00:19:58.470Z,0.90
2023-05-03T00:20:09.922Z,0.92
2023-05-03T00:20:19.441Z,0.90
2023-05-03T00:20:26.735Z,0.70
2023-05-03T00:20:50.524Z,0.70
2023-05-03T00:21:02.593Z,0.67
2023-05-03T00:21:10.909Z,0.70
2023-05-03T00:21:18.064Z,0.63
2023-05-03T00:21:25.331Z,0.70
2023-05-03T00:21:32.684Z,0.70
2023-05-03T00:21:54.433Z,0.67
2023-05-03T00:22:10.176Z,0.68
2023-05-03T00:22:19.981Z,0.70
2023-05-03T00:22:27.205Z,0.70
2023-05-03T00:22:34.601Z,0.70
2023-05-03T00:22:41.769Z,0.64
2023-05-03T00:22:55.874Z,0.60
2023-05-03T00:23:11.649Z,0.60
2023-05-03T00:23:26.044Z,0.67
2023-05-03T00:23:33.377Z,0.62
2023-05-03T00:23:40.570Z,0.70
2023-05-03T00:23:50.450Z,0.72
2023-05-03T00:23:57.758Z,0.75
2023-05-03T00:24:17.686Z,0.74
2023-05-03T00:24:32.003Z,0.70
2023-05-03T00:24:39.572Z,0.70
2023-05-03T00:24:46.736Z,0.70
2023-05-03T00:24:54.030Z,0.80
2023-05-03T00:25:01.332Z,0.80
2023-05-03T00:25:23.428Z,0.74
2023-05-03T00:25:37.976Z,0.80
2023-05-03T00:25:45.072Z,0.80
2023-05-03T00:25:56.141Z,0.80
2023-05-03T00:26:03.263Z,0.74
2023-05-03T00:26:10.546Z,0.66
2023-05-03T00:26:27.767Z,0.73
2023-05-03T00:26:45.052Z,0.80
2023-05-03T00:26:55.110Z,0.80
2023-05-03T00:27:03.907Z,0.86
2023-05-03T00:27:11.210Z,0.84
2023-05-03T00:27:19.183Z,0.80
2023-05-03T00:27:34.148Z,0.80
2023-05-03T00:27:48.447Z,0.80
2023-05-03T00:27:55.641Z,0.70
2023-05-03T00:28:09.817Z,0.60
2023-05-03T00:28:17.288Z,0.70
2023-05-03T00:28:27.580Z,0.70
2023-05-03T00:28:34.664Z,0.70
2023-05-03T00:28:49.478Z,0.80
2023-05-03T00:28:56.656Z,0.90
2023-05-03T00:29:12.499Z,0.90
2023-05-03T00:29:22.481Z,0.70
2023-05-03T00:29:29.626Z,0.61
2023-05-03T00:29:36.804Z,0.70
2023-05-03T00:29:52.404Z,0.82
2023-05-03T00:30:02.372Z,0.83
2023-05-03T00:30:13.203Z,0.80
2023-05-03T00:30:28.914Z,0.63
2023-05-03T00:30:36.048Z,0.70
2023-05-03T00:30:43.184Z,0.70
2023-05-03T00:31:06.708Z,0.70
2023-05-03T00:31:13.889Z,0.70
2023-05-03T00:31:24.127Z,0.80
2023-05-03T00:31:34.015Z,0.88
2023-05-03T00:31:41.211Z,0.80
2023-05-03T00:31:48.600Z,0.83
2023-05-03T00:32:11.145Z,0.80
2023-05-03T00:32:18.276Z,0.80
2023-05-03T00:32:25.428Z,0.77
2023-05-03T00:32:41.972Z,0.76
2023-05-03T00:32:49.283Z,0.77
2023-05-03T00:32:56.765Z,0.80
2023-05-03T00:33:13.846Z,0.98
2023-05-03T00:33:21.223Z,1.00
2023-05-03T00:33:29.111Z,0.98
2023-05-03T00:33:45.419Z,0.80
2023-05-03T00:33:52.532Z,0.76
2023-05-03T00:33:59.912Z,0.70
2023-05-03T00:34:14.507Z,0.70
2023-05-03T00:34:24.949Z,0.70
2023-05-03T00:34:34.308Z,0.70
2023-05-03T00:34:53.173Z,0.83
2023-05-03T00:35:01.194Z,0.81
2023-05-03T00:35:11.462Z,0.80
2023-05-03T00:35:20.685Z,0.71
2023-05-03T00:35:28.201Z,0.70
2023-05-03T00:35:35.474Z,0.70
2023-05-03T00:36:00.183Z,0.93
2023-05-03T00:36:11.432Z,1.00
2023-05-03T00:36:18.570Z,0.84
2023-05-03T00:36:26.408Z,0.70
2023-05-03T00:36:35.744Z,0.60
2023-05-03T00:36:44.512Z,0.60
2023-05-03T00:37:06.810Z,0.93
2023-05-03T00:37:14.043Z,1.00
2023-05-03T00:37:24.014Z,1.08
2023-05-03T00:37:31.343Z,1.06
2023-05-03T00:37:38.584Z,0.90
2023-05-03T00:37:46.731Z,0.90
2023-05-03T00:38:08.321Z,0.70
2023-05-03T00:38:17.826Z,0.80
2023-05-03T00:38:24.975Z,0.90
2023-05-03T00:38:32.087Z,1.00
2023-05-03T00:38:42.716Z,0.90
2023-05-03T00:38:50.256Z,0.84
2023-05-03T00:39:12.364Z,0.78
2023-05-03T00:39:20.550Z,0.80
2023-05-03T00:39:30.064Z,0.80
2023-05-03T00:39:37.396Z,0.66
2023-05-03T00:39:44.864Z,0.60
2023-05-03T00:39:52.303Z,0.70
2023-05-03T00:40:12.420Z,0.70
2023-05-03T00:40:26.986Z,0.70
2023-05-03T00:40:34.275Z,0.70
2023-05-03T00:40:41.538Z,0.70
2023-05-03T00:40:54.786Z,0.80
2023-05-03T00:41:03.386Z,0.80
2023-05-03T00:41:13.444Z,0.74
2023-05-03T00:41:31.645Z,0.73
2023-05-03T00:41:39.254Z,0.70
2023-05-03T00:41:46.633Z,0.80
2023-05-03T00:41:57.247Z,0.70
2023-05-03T00:42:04.625Z,0.74
2023-05-03T00:42:19.293Z,1.07
2023-05-03T00:42:34.762Z,1.16
2023-05-03T00:42:44.520Z,0.80
2023-05-03T00:42:51.589Z,0.77
2023-05-03T00:42:58.757Z,0.70
2023-05-03T00:43:06.122Z,0.70
2023-05-03T00:43:22.665Z,0.60
2023-05-03T00:43:38.103Z,0.60
2023-05-03T00:43:45.561Z,0.60
2023-05-03T00:43:52.821Z,0.60
2023-05-03T00:44:00.024Z,0.68
2023-05-03T00:44:08.657Z,0.70
2023-05-03T00:44:25.880Z,0.70
2023-05-03T00:44:40.462Z,0.83
2023-05-03T00:44:47.653Z,1.00
2023-05-03T00:44:56.803Z,0.90
2023-05-03T00:45:06.325Z,0.87
2023-05-03T00:45:13.605Z,0.73
2023-05-03T00:45:29.789Z,0.70
2023-05-03T00:45:47.821Z,0.70
2023-05-03T00:46:01.865Z,0.77
2023-05-03T00:46:17.663Z,0.76
2023-05-03T00:46:25.763Z,0.69
2023-05-03T00:46:34.748Z,0.80
2023-05-03T00:46:42.105Z,0.79
2023-05-03T00:46:49.788Z,0.80
2023-05-03T00:46:57.848Z,0.72
2023-05-03T00:47:22.909Z,0.75
2023-05-03T00:47:30.549Z,0.70
2023-05-03T00:47:38.456Z,0.80
2023-05-03T00:47:45.796Z,0.80
2023-05-03T00:47:53.313Z,0.80
2023-05-03T00:48:01.288Z,0.80
2023-05-03T00:48:25.027Z,0.70
2023-05-03T00:48:32.285Z,0.68
2023-05-03T00:48:39.372Z,0.70
2023-05-03T00:48:51.103Z,0.70
2023-05-03T00:48:58.612Z,0.70
2023-05-03T00:49:06.085Z,0.67
2023-05-03T00:49:27.764Z,0.70
2023-05-03T00:49:34.893Z,0.70
2023-05-03T00:49:42.337Z,0.62
2023-05-03T00:49:56.724Z,0.83
2023-05-03T00:50:05.717Z,1.30
2023-05-03T00:50:18.596Z,1.30
2023-05-03T00:50:33.905Z,1.00
2023-05-03T00:50:45.068Z,1.00
2023-05-03T00:50:54.559Z,0.99
2023-05-03T00:51:03.654Z,0.79
2023-05-03T00:51:15.013Z,0.80
2023-05-03T00:51:23.939Z,0.74
2023-05-03T00:51:42.290Z,0.59
2023-05-03T00:51:50.815Z,0.60
2023-05-03T00:51:59.615Z,0.60
2023-05-03T00:52:06.885Z,0.70
2023-05-03T00:52:21.971Z,0.70
2023-05-03T00:52:29.880Z,0.70
2023-05-03T00:52:45.697Z,0.77
2023-05-03T00:52:54.435Z,0.79
2023-05-03T00:53:01.636Z,0.70
2023-05-03T00:53:11.543Z,1.02
2023-05-03T00:53:28.868Z,0.94
2023-05-03T00:53:36.454Z,0.88
2023-05-03T00:53:51.956Z,0.60
2023-05-03T00:53:59.258Z,0.60
2023-05-03T00:54:07.045Z,0.57
2023-05-03T00:54:14.490Z,0.60
2023-05-03T00:54:30.838Z,0.70
2023-05-03T00:54:41.017Z,0.70
2023-05-03T00:54:57.231Z,0.63
2023-05-03T00:55:06.696Z,0.70
2023-05-03T00:55:15.884Z,0.70
2023-05-03T00:55:24.125Z,0.71
2023-05-03T00:55:32.277Z,0.80
2023-05-03T00:55:51.348Z,0.80
2023-05-03T00:56:01.272Z,0.81
2023-05-03T00:56:10.173Z,0.80
2023-05-03T00:56:21.055Z,0.80
2023-05-03T00:56:31.108Z,0.80
2023-05-03T00:56:51.049Z,0.80
2023-05-03T00:56:59.875Z,0.73
2023-05-03T00:57:12.147Z,0.80
2023-05-03T00:57:21.711Z,0.76
2023-05-03T00:57:31.228Z,0.77
2023-05-03T00:57:38.405Z,0.70
2023-05-03T00:57:45.722Z,0.80
2023-05-03T00:58:00.196Z,0.80
2023-05-03T00:58:14.682Z,0.90
2023-05-03T00:58:22.888Z,0.93
2023-05-03T00:58:33.678Z,1.07
2023-05-03T00:58:43.501Z,1.02
2023-05-03T00:58:51.574Z,0.91
2023-05-03T00:59:06.635Z,1.00
2023-05-03T00:59:16.284Z,1.00
2023-05-03T00:59:23.758Z,0.93
2023-05-03T00:59:34.881Z,0.76
2023-05-03T00:59:50.254Z,0.80
2023-05-03T00:59:59.300Z,0.85
2023-05-03T01:00:10.975Z,0.80
2023-05-03T01:00:19.418Z,0.74
2023-05-03T01:00:26.997Z,0.77
2023-05-03T01:00:42.620Z,0.97
2023-05-03T01:01:01.019Z,0.83
2023-05-03T01:01:09.449Z,0.70
2023-05-03T01:01:17.159Z,0.60
2023-05-03T01:01:30.769Z,0.63
2023-05-03T01:01:37.992Z,0.64
2023-05-03T01:01:48.998Z,0.70
2023-05-03T01:02:03.431Z,0.90
2023-05-03T01:02:12.379Z,1.00
2023-05-03T01:02:19.609Z,0.96
2023-05-03T01:02:36.157Z,1.00
2023-05-03T01:02:48.751Z,1.00
2023-05-03T01:02:56.291Z,1.10
2023-05-03T01:03:04.115Z,0.93
2023-05-03T01:03:18.958Z,0.98
2023-05-03T01:03:26.418Z,0.90
2023-05-03T01:03:36.474Z,0.90
2023-05-03T01:04:16.288Z,0.90
2023-05-03T01:04:24.826Z,0.80
2023-05-03T01:04:32.275Z,0.80
2023-05-03T01:04:43.513Z,1.05
2023-05-03T01:04:51.856Z,1.30
2023-05-03T01:04:59.183Z,1.30
2023-05-03T01:05:17.772Z,1.00
2023-05-03T01:05:31.845Z,0.90
2023-05-03T01:05:51.035Z,0.88
2023-05-03T01:06:07.483Z,0.94
2023-05-03T01:06:26.054Z,0.98
2023-05-03T01:06:43.670Z,0.88
2023-05-03T01:06:59.723Z,0.70
2023-05-03T01:07:25.740Z,0.70
2023-05-03T01:07:41.218Z,0.74
2023-05-03T01:07:56.110Z,0.90
2023-05-03T01:08:11.816Z,0.85
2023-05-03T01:08:27.717Z,0.81
2023-05-03T01:08:43.948Z,0.80
2023-05-03T01:08:59.387Z,0.82
2023-05-03T01:09:13.077Z,0.93
2023-05-03T01:09:28.598Z,0.94
2023-05-03T01:09:43.437Z,0.99
2023-05-03T01:10:00.694Z,1.01
2023-05-03T01:10:18.417Z,1.00
2023-05-03T01:10:37.692Z,0.93
2023-05-03T01:10:50.461Z,0.82
2023-05-03T01:11:07.460Z,1.00
2023-05-03T01:11:22.036Z,1.05
2023-05-03T01:11:39.224Z,1.00
2023-05-03T01:11:53.881Z,0.94
2023-05-03T01:12:22.361Z,0.93
2023-05-03T01:12:38.958Z,0.80
2023-05-03T01:12:56.184Z,0.89
2023-05-03T01:13:12.527Z,1.14
2023-05-03T01:13:35.860Z,0.98
2023-05-03T01:13:55.265Z,0.79
2023-05-03T01:14:10.761Z,0.81
2023-05-03T01:14:28.711Z,0.80
2023-05-03T01:14:41.699Z,0.85
2023-05-03T01:15:07.805Z,1.17
2023-05-03T01:15:24.412Z,1.60
2023-05-03T01:15:44.598Z,1.09
2023-05-03T01:16:00.360Z,0.86
2023-05-03T01:16:18.926Z,0.94
2023-05-03T01:16:34.024Z,0.88
2023-05-03T01:16:47.893Z,0.80
2023-05-03T01:17:05.828Z,0.76
2023-05-03T01:17:15.639Z,0.73
2023-05-03T01:17:28.452Z,0.83
2023-05-03T01:17:39.407Z,0.88
2023-05-03T01:17:51.909Z,0.90
2023-05-03T01:18:07.977Z,0.80
2023-05-03T01:18:18.994Z,0.80
2023-05-03T01:18:33.852Z,0.78
2023-05-03T01:18:44.421Z,0.70
2023-05-03T01:18:55.940Z,0.74
2023-05-03T01:19:07.511Z,0.93
2023-05-03T01:19:27.421Z,1.05
2023-05-03T01:19:38.227Z,0.91
2023-05-03T01:19:50.343Z,0.70
2023-05-03T01:20:08.435Z,0.69
2023-05-03T01:20:25.023Z,0.73
2023-05-03T01:20:35.437Z,0.81
2023-05-03T01:20:46.822Z,0.80
2023-05-03T01:20:54.115Z,0.70
2023-05-03T01:21:05.333Z,0.70
2023-05-03T01:21:16.724Z,0.70
2023-05-03T01:21:28.188Z,0.86
2023-05-03T01:21:37.500Z,0.91
2023-05-03T01:21:51.739Z,0.97
2023-05-03T01:22:16.538Z,0.90
2023-05-03T01:22:32.743Z,0.75
2023-05-03T01:22:47.197Z,0.75
2023-05-03T01:23:08.233Z,0.84
2023-05-03T01:23:28.705Z,0.79
2023-05-03T01:23:42.926Z,0.74
2023-05-03T01:24:01.063Z,0.88
2023-05-03T01:24:13.697Z,0.85
2023-05-03T01:24:27.158Z,0.80
2023-05-03T01:24:39.854Z,0.79
2023-05-03T01:24:52.130Z,0.71
2023-05-03T01:25:07.906Z,0.70
2023-05-03T01:25:16.009Z,0.60
2023-05-03T01:25:23.218Z,0.62
2023-05-03T01:25:31.648Z,0.70
2023-05-03T01:25:46.383Z,0.78
2023-05-03T01:25:54.634Z,0.70
2023-05-03T01:26:19.344Z,0.60
2023-05-03T01:26:28.040Z,0.74
2023-05-03T01:26:35.242Z,0.70
2023-05-03T01:26:42.428Z,0.70
2023-05-03T01:26:49.545Z,0.70
2023-05-03T01:26:56.637Z,0.73
2023-05-03T01:27:21.722Z,0.90
2023-05-03T01:27:28.860Z,0.87
2023-05-03T01:27:36.210Z,0.70
2023-05-03T01:27:46.618Z,0.70
2023-05-03T01:27:53.854Z,0.71
2023-05-03T01:28:01.766Z,0.76
2023-05-03T01:28:25.969Z,0.90
2023-05-03T01:28:33.259Z,0.84
2023-05-03T01:28:40.346Z,0.80
2023-05-03T01:28:47.556Z,0.80
2023-05-03T01:28:56.670Z,0.80
2023-05-03T01:29:04.213Z,0.80
2023-05-03T01:29:28.246Z,0.80
2023-05-03T01:29:35.777Z,0.80
2023-05-03T01:29:44.116Z,0.80
2023-05-03T01:29:51.575Z,0.83
2023-05-03T01:29:58.679Z,0.72
2023-05-03T01:30:08.022Z,0.70
2023-05-03T01:30:34.869Z,0.80
2023-05-03T01:30:46.241Z,0.80
2023-05-03T01:30:54.834Z,0.80
2023-05-03T01:31:03.621Z,0.71
2023-05-03T01:31:11.463Z,0.70
2023-05-03T01:31:24.262Z,0.70
2023-05-03T01:31:39.806Z,0.70
2023-05-03T01:31:53.507Z,0.76
2023-05-03T01:32:02.257Z,0.79
2023-05-03T01:32:24.029Z,0.70
2023-05-03T01:32:37.072Z,0.74
2023-05-03T01:32:53.480Z,0.80
2023-05-03T01:33:10.950Z,0.76
2023-05-03T01:33:26.524Z,0.80
2023-05-03T01:33:40.973Z,0.80
2023-05-03T01:33:59.285Z,0.84
2023-05-03T01:34:25.637Z,0.90
2023-05-03T01:34:43.121Z,0.79
2023-05-03T01:34:55.715Z,0.80
2023-05-03T01:35:08.802Z,0.90
2023-05-03T01:35:30.639Z,0.88
2023-05-03T01:35:41.495Z,0.80
2023-05-03T01:36:03.425Z,0.87
2023-05-03T01:36:16.838Z,0.80
2023-05-03T01:36:30.103Z,0.80
2023-05-03T01:36:37.692Z,0.80
2023-05-03T01:36:46.281Z,0.96
2023-05-03T01:36:58.911Z,1.00
2023-05-03T01:37:11.308Z,1.09
2023-05-03T01:37:19.003Z,1.05
2023-05-03T01:37:38.892Z,1.00
2023-05-03T01:37:46.625Z,0.90
2023-05-03T01:37:56.268Z,0.90
2023-05-03T01:38:04.666Z,0.80
2023-05-03T01:38:13.722Z,0.90
2023-05-03T01:38:22.826Z,1.00
2023-05-03T01:38:41.333Z,0.97
2023-05-03T01:38:52.249Z,0.93
2023-05-03T01:39:03.818Z,0.90
2023-05-03T01:39:15.784Z,0.80
2023-05-03T01:39:29.333Z,0.80
2023-05-03T01:39:41.392Z,0.89
2023-05-03T01:39:53.713Z,0.90
2023-05-03T01:40:07.707Z,0.80
2023-05-03T01:40:17.071Z,0.80
2023-05-03T01:40:27.913Z,0.80
2023-05-03T01:40:41.052Z,0.96
2023-05-03T01:40:52.781Z,1.00
2023-05-03T01:41:04.589Z,0.86
2023-05-03T01:41:14.472Z,0.70
2023-05-03T01:41:26.168Z,0.77
2023-05-03T01:41:34.878Z,0.80
2023-05-03T01:41:43.332Z,0.93
2023-05-03T01:42:01.467Z,0.94
2023-05-03T01:42:08.996Z,1.04
2023-05-03T01:42:20.952Z,1.07
2023-05-03T01:42:28.950Z,1.15
2023-05-03T01:42:37.948Z,1.00
2023-05-03T01:42:49.085Z,0.90
2023-05-03T01:43:05.410Z,0.80
2023-05-03T01:43:14.404Z,0.80
2023-05-03T01:43:23.472Z,0.90
2023-05-03T01:43:31.751Z,0.74
2023-05-03T01:43:43.541Z,0.73
2023-05-03T01:43:53.034Z,0.80
2023-05-03T01:44:12.396Z,0.87
2023-05-03T01:44:21.659Z,0.84
2023-05-03T01:44:30.902Z,0.83
2023-05-03T01:44:42.273Z,0.90
2023-05-03T01:44:50.520Z,0.90
2023-05-03T01:44:59.153Z,0.87
2023-05-03T01:45:18.896Z,0.80
2023-05-03T01:45:26.876Z,0.80
2023-05-03T01:45:38.543Z,0.81
2023-05-03T01:45:46.625Z,0.90
2023-05-03T01:45:54.986Z,0.90
2023-05-03T01:46:03.417Z,0.90
2023-05-03T01:46:20.025Z,0.81
2023-05-03T01:46:29.051Z,0.90
2023-05-03T01:46:42.799Z,1.03
2023-05-03T01:46:50.304Z,1.01
2023-05-03T01:47:00.008Z,1.00
2023-05-03T01:47:08.203Z,0.86
2023-05-03T01:47:27.980Z,0.87
2023-05-03T01:47:36.069Z,0.90
2023-05-03T01:47:44.541Z,1.07
2023-05-03T01:47:51.836Z,1.10
2023-05-03T01:48:11.509Z,1.12
2023-05-03T01:48:20.089Z,0.93
2023-05-03T01:48:28.100Z,0.87
2023-05-03T01:48:38.106Z,0.86
2023-05-03T01:48:46.426Z,0.80
2023-05-03T01:48:53.685Z,0.76
2023-05-03T01:49:11.545Z,0.73
2023-05-03T01:49:26.842Z,0.90
2023-05-03T01:49:35.795Z,1.07
2023-05-03T01:49:42.951Z,1.06
2023-05-03T01:49:51.138Z,0.90
2023-05-03T01:49:58.607Z,1.00
2023-05-03T01:50:16.288Z,0.80
2023-05-03T01:50:33.304Z,0.77
2023-05-03T01:50:41.627Z,0.78
2023-05-03T01:50:51.157Z,0.90
2023-05-03T01:50:58.372Z,0.90
2023-05-03T01:51:06.055Z,0.90
2023-05-03T01:51:20.296Z,0.80
2023-05-03T01:51:37.935Z,0.92
2023-05-03T01:51:45.115Z,1.00
2023-05-03T01:51:52.195Z,1.07
2023-05-03T01:52:04.716Z,1.06
2023-05-03T01:52:11.939Z,1.00
2023-05-03T01:52:27.077Z,1.02
2023-05-03T01:52:47.648Z,1.17
2023-05-03T01:52:56.714Z,1.08
2023-05-03T01:53:03.858Z,0.84
2023-05-03T01:53:11.229Z,0.80
2023-05-03T01:53:18.468Z,0.80
2023-05-03T01:53:32.971Z,0.80
2023-05-03T01:53:49.498Z,0.80
2023-05-03T01:54:03.937Z,0.87
2023-05-03T01:54:16.400Z,0.83
2023-05-03T01:54:23.617Z,0.85
2023-05-03T01:54:32.494Z,0.95
2023-05-03T01:54:39.742Z,0.90
2023-05-03T01:54:54.104Z,0.88
2023-05-03T01:55:04.242Z,0.80
2023-05-03T01:55:18.889Z,0.87
2023-05-03T01:55:26.140Z,1.00
2023-05-03T01:55:33.810Z,1.00
2023-05-03T01:55:40.961Z,1.10
2023-05-03T01:55:58.024Z,0.90
2023-05-03T01:56:08.384Z,0.90
2023-05-03T01:56:22.967Z,1.00
2023-05-03T01:56:30.784Z,1.26
2023-05-03T01:56:38.247Z,1.20
2023-05-03T01:56:45.485Z,1.20
2023-05-03T01:57:02.981Z,0.82
2023-05-03T01:57:10.939Z,0.93
2023-05-03T01:57:29.259Z,1.00
2023-05-03T01:57:37.578Z,1.09
2023-05-03T01:57:44.833Z,1.10
2023-05-03T01:57:52.044Z,1.12
2023-05-03T01:58:09.228Z,1.00
2023-05-03T01:58:19.526Z,1.00
2023-05-03T01:58:33.801Z,0.93
2023-05-03T01:58:41.216Z,0.97
2023-05-03T01:58:49.555Z,1.10
2023-05-03T01:59:01.939Z,1.10
2023-05-03T01:59:16.189Z,1.00
2023-05-03T01:59:24.415Z,1.08
2023-05-03T01:59:41.040Z,0.90
2023-05-03T01:59:48.233Z,1.04
2023-05-03T01:59:55.447Z,1.00
2023-05-03T02:00:03.055Z,1.00
2023-05-03T02:00:22.787Z,1.05
2023-05-03T02:00:32.573Z,1.00
2023-05-03T02:00:49.562Z,0.80
2023-05-03T02:00:57.288Z,0.90
2023-05-03T02:01:08.302Z,0.82
2023-05-03T02:01:15.815Z,0.97
2023-05-03T02:01:23.132Z,1.00
2023-05-03T02:01:40.473Z,1.00
2023-05-03T02:01:50.725Z,0.82
2023-05-03T02:02:00.863Z,0.80
2023-05-03T02:02:15.390Z,0.90
2023-05-03T02:02:22.819Z,1.20
2023-05-03T02:02:30.063Z,1.20
2023-05-03T02:02:44.677Z,1.20
2023-05-03T02:02:53.113Z,1.03
2023-05-03T02:03:09.514Z,1.20
2023-05-03T02:03:19.377Z,1.10
2023-05-03T02:03:26.777Z,0.96
2023-05-03T02:03:34.165Z,0.90
2023-05-03T02:03:48.439Z,1.03
2023-05-03T02:03:57.225Z,0.96
2023-05-03T02:04:12.222Z,0.92
2023-05-03T02:04:19.506Z,0.80
2023-05-03T02:04:26.899Z,0.82
2023-05-03T02:04:36.817Z,0.90
2023-05-03T02:04:51.425Z,1.00
2023-05-03T02:04:59.488Z,1.13
2023-05-03T02:05:17.051Z,1.10
2023-05-03T02:05:24.330Z,1.14
2023-05-03T02:05:31.593Z,1.08
2023-05-03T02:05:38.790Z,1.03
2023-05-03T02:05:55.516Z,1.10
2023-05-03T02:06:02.700Z,1.10
2023-05-03T02:06:20.028Z,1.06
2023-05-03T02:06:28.338Z,1.10
2023-05-03T02:06:38.883Z,1.20
2023-05-03T02:06:46.198Z,1.17
2023-05-03T02:07:02.260Z,1.10
2023-05-03T02:07:11.390Z,1.20
2023-05-03T02:07:26.592Z,1.10
2023-05-03T02:07:33.785Z,1.02
2023-05-03T02:07:41.832Z,1.00
2023-05-03T02:07:49.099Z,0.90
2023-05-03T02:08:09.367Z,0.99
2023-05-03T02:08:17.054Z,1.00
2023-05-03T02:08:31.773Z,1.00
2023-05-03T02:08:41.098Z,0.90
2023-05-03T02:08:48.389Z,0.97
2023-05-03T02:08:57.618Z,0.95
2023-05-03T02:09:13.290Z,0.97
2023-05-03T02:09:23.443Z,0.87
2023-05-03T02:09:33.181Z,0.95
2023-05-03T02:09:48.108Z,1.28
2023-05-03T02:09:57.240Z,1.26
2023-05-03T02:10:14.597Z,1.10
2023-05-03T02:10:22.398Z,1.01
2023-05-03T02:10:29.581Z,1.08
2023-05-03T02:10:37.476Z,1.20
2023-05-03T02:10:51.732Z,1.30
2023-05-03T02:11:00.192Z,1.22
2023-05-03T02:11:15.427Z,1.02
2023-05-03T02:11:25.185Z,0.90
2023-05-03T02:11:33.187Z,0.80
2023-05-03T02:11:40.683Z,0.85
2023-05-03T02:11:57.479Z,0.90
2023-05-03T02:12:05.048Z,0.90
2023-05-03T02:12:21.700Z,1.03
2023-05-03T02:12:29.368Z,1.18
2023-05-03T02:12:38.042Z,1.29
2023-05-03T02:12:45.657Z,1.47
2023-05-03T02:13:03.872Z,1.24
2023-05-03T02:13:11.049Z,1.00
2023-05-03T02:13:25.565Z,0.80
2023-05-03T02:13:32.726Z,0.94
2023-05-03T02:13:39.989Z,0.93
2023-05-03T02:13:49.789Z,1.04
2023-05-03T02:14:04.476Z,1.16
2023-05-03T02:14:12.844Z,1.24
2023-05-03T02:14:30.041Z,1.18
2023-05-03T02:14:39.343Z,1.11
2023-05-03T02:14:46.849Z,1.10
2023-05-03T02:14:54.257Z,1.13
2023-05-03T02:15:09.553Z,1.33
2023-05-03T02:15:20.407Z,1.30
2023-05-03T02:15:34.696Z,1.18
2023-05-03T02:15:42.277Z,1.17
2023-05-03T02:15:49.513Z,1.20
2023-05-03T02:15:59.578Z,1.00
2023-05-03T02:16:14.160Z,0.94
2023-05-03T02:16:21.724Z,0.90
2023-05-03T02:16:37.502Z,1.04
2023-05-03T02:16:47.054Z,1.10
2023-05-03T02:16:55.996Z,1.10
2023-05-03T02:17:03.571Z,1.10
2023-05-03T02:17:19.193Z,0.90
2023-05-03T02:17:26.785Z,1.10
2023-05-03T02:17:38.062Z,1.20
2023-05-03T02:17:49.744Z,1.19
2023-05-03T02:17:58.766Z,1.11
2023-05-03T02:18:06.246Z,1.00
2023-05-03T02:18:21.993Z,1.10
2023-05-03T02:18:31.579Z,1.10
2023-05-03T02:18:38.817Z,1.20
2023-05-03T02:18:54.652Z,1.23
2023-05-03T02:19:05.640Z,1.20
2023-05-03T02:19:14.974Z,1.09
2023-05-03T02:19:22.369Z,1.10
2023-05-03T02:19:36.740Z,1.06
2023-05-03T02:19:44.050Z,0.98
2023-05-03T02:19:58.879Z,0.90
2023-05-03T02:20:10.170Z,0.97
2023-05-03T02:20:17.478Z,0.91
2023-05-03T02:20:24.893Z,1.10
2023-05-03T02:20:37.966Z,1.08
2023-05-03T02:20:45.962Z,1.10
2023-05-03T02:21:00.461Z,1.00
2023-05-03T02:21:16.457Z,0.90
2023-05-03T02:21:23.537Z,0.92
2023-05-03T02:21:31.947Z,1.30
2023-05-03T02:21:40.280Z,1.30
2023-05-03T02:21:47.600Z,1.30
2023-05-03T02:22:04.371Z,0.87
2023-05-03T02:22:24.045Z,0.96
2023-05-03T02:22:31.277Z,1.10
2023-05-03T02:22:38.507Z,1.00
2023-05-03T02:22:45.667Z,0.98
2023-05-03T02:22:53.212Z,0.96
2023-05-03T02:23:07.551Z,1.14
2023-05-03T02:23:31.616Z,1.12
2023-05-03T02:23:38.757Z,1.04
2023-05-03T02:23:46.015Z,1.10
2023-05-03T02:23:54.066Z,1.20
2023-05-03T02:24:02.799Z,1.20
2023-05-03T02:24:11.951Z,1.07
2023-05-03T02:24:37.506Z,1.07
2023-05-03T02:24:44.749Z,1.38
2023-05-03T02:24:54.510Z,1.72
2023-05-03T02:25:01.798Z,1.76
2023-05-03T02:25:11.988Z,1.70
2023-05-03T02:25:19.286Z,1.30
2023-05-03T02:25:42.024Z,1.00
2023-05-03T02:25:51.528Z,1.00
2023-05-03T02:25:59.053Z,1.08
2023-05-03T02:26:11.372Z,1.12
2023-05-03T02:26:21.659Z,1.25
2023-05-03T02:26:29.119Z,1.20
2023-05-03T02:26:43.822Z,1.22
2023-05-03T02:26:58.172Z,1.14
2023-05-03T02:27:05.430Z,1.20
2023-05-03T02:27:12.618Z,1.22
2023-05-03T02:27:26.948Z,1.38
2023-05-03T02:27:34.139Z,1.18
2023-05-03T02:27:51.371Z,1.13
2023-05-03T02:28:00.482Z,1.26
2023-05-03T02:28:07.572Z,1.30
2023-05-03T02:28:16.686Z,1.20
2023-05-03T02:28:30.962Z,1.06
2023-05-03T02:28:38.177Z,1.17
2023-05-03T02:28:56.143Z,1.30
2023-05-03T02:29:04.063Z,1.57
2023-05-03T02:29:15.914Z,2.05
2023-05-03T02:29:23.271Z,2.03
2023-05-03T02:29:39.168Z,1.13
2023-05-03T02:29:46.644Z,1.10
2023-05-03T02:29:56.910Z,1.17
2023-05-03T02:30:06.889Z,1.19
2023-05-03T02:30:20.037Z,1.09
2023-05-03T02:30:29.910Z,0.97
2023-05-03T02:30:44.438Z,0.90
2023-05-03T02:30:51.928Z,0.90
2023-05-03T02:30:59.290Z,0.88
2023-05-03T02:31:06.845Z,0.93
2023-05-03T02:31:23.676Z,1.02
2023-05-03T02:31:31.195Z,1.10
2023-05-03T02:31:46.995Z,1.13
2023-05-03T02:31:54.168Z,1.10
2023-05-03T02:32:05.650Z,1.14
2023-05-03T02:32:12.876Z,1.22
2023-05-03T02:32:29.278Z,1.11
2023-05-03T02:32:36.637Z,1.17
2023-05-03T02:32:51.327Z,1.03
2023-05-03T02:33:01.967Z,1.05